sensor_id;sensor_type;location;lat;lon;timestamp;pressure;altitude;pressure_sealevel;temperature;humidity
15272;BME280;7737;51.578;7.268;2023-03-03T00:00:04;101891.78;;;1.69;100.00
15272;BME280;7737;51.578;7.268;2023-03-03T00:02:31;101888.31;;;1.85;100.00
15272;BME280;7737;51.578;7.268;2023-03-03T00:04:57;101890.03;;;1.76;100.00
15272;BME280;7737;51.578;7.268;2023-03-03T00:07:24;101880.47;;;1.82;100.00
15272;BME280;7737;51.578;7.268;2023-03-03T00:09:51;101879.53;;;1.71;100.00
15272;BME280;7737;51.578;7.268;2023-03-03T00:12:22;101884.81;;;1.80;100.00
15272;BME280;7737;51.578;7.268;2023-03-03T00:14:49;101891.78;;;1.75;100.00
15272;BME280;7737;51.578;7.268;2023-03-03T00:17:20;101892.66;;;1.76;100.00
15272;BME280;7737;51.578;7.268;2023-03-03T00:19:47;101883.06;;;1.76;100.00
15272;BME280;7737;51.578;7.268;2023-03-03T00:22:21;101889.13;;;1.72;100.00
15272;BME280;7737;51.578;7.268;2023-03-03T00:24:52;101888.19;;;1.55;100.00
15272;BME280;7737;51.578;7.268;2023-03-03T00:27:27;101891.72;;;1.63;100.00
15272;BME280;7737;51.578;7.268;2023-03-03T00:29:56;101892.59;;;1.61;100.00
15272;BME280;7737;51.578;7.268;2023-03-03T00:32:24;101890.75;;;1.49;100.00
15272;BME280;7737;51.578;7.268;2023-03-03T00:34:53;101886.44;;;1.53;100.00
15272;BME280;7737;51.578;7.268;2023-03-03T00:37:27;101893.34;;;1.43;100.00
15272;BME280;7737;51.578;7.268;2023-03-03T00:40:02;101903.00;;;1.50;100.00
15272;BME280;7737;51.578;7.268;2023-03-03T00:42:35;101904.75;;;1.50;100.00
15272;BME280;7737;51.578;7.268;2023-03-03T00:45:17;101903.84;;;1.49;100.00
15272;BME280;7737;51.578;7.268;2023-03-03T00:47:47;101899.47;;;1.47;100.00
15272;BME280;7737;51.578;7.268;2023-03-03T00:50:25;101903.84;;;1.46;100.00
15272;BME280;7737;51.578;7.268;2023-03-03T00:53:04;101907.38;;;1.48;100.00
15272;BME280;7737;51.578;7.268;2023-03-03T00:55:33;101908.25;;;1.55;100.00
15272;BME280;7737;51.578;7.268;2023-03-03T00:58:01;101909.06;;;1.46;100.00
15272;BME280;7737;51.578;7.268;2023-03-03T01:00:28;101905.66;;;1.53;100.00
15272;BME280;7737;51.578;7.268;2023-03-03T01:02:54;101905.63;;;1.52;100.00
15272;BME280;7737;51.578;7.268;2023-03-03T01:05:21;101897.81;;;1.62;100.00
15272;BME280;7737;51.578;7.268;2023-03-03T01:07:47;101903.03;;;1.53;100.00
15272;BME280;7737;51.578;7.268;2023-03-03T01:10:14;101905.72;;;1.65;100.00
15272;BME280;7737;51.578;7.268;2023-03-03T01:12:42;101907.38;;;1.48;100.00
15272;BME280;7737;51.578;7.268;2023-03-03T01:15:10;101902.13;;;1.54;100.00
15272;BME280;7737;51.578;7.268;2023-03-03T01:17:37;101903.81;;;1.43;100.00
15272;BME280;7737;51.578;7.268;2023-03-03T01:20:06;101901.19;;;1.42;100.00
15272;BME280;7737;51.578;7.268;2023-03-03T01:22:32;101910.78;;;1.41;100.00
15272;BME280;7737;51.578;7.268;2023-03-03T01:24:59;101902.97;;;1.43;100.00
15272;BME280;7737;51.578;7.268;2023-03-03T01:27:27;101902.09;;;1.47;100.00
15272;BME280;7737;51.578;7.268;2023-03-03T01:29:56;101898.56;;;1.37;100.00
15272;BME280;7737;51.578;7.268;2023-03-03T01:32:23;101895.06;;;1.37;100.00
15272;BME280;7737;51.578;7.268;2023-03-03T01:34:50;101899.47;;;1.42;100.00
15272;BME280;7737;51.578;7.268;2023-03-03T01:37:16;101904.69;;;1.42;100.00
15272;BME280;7737;51.578;7.268;2023-03-03T01:39:47;101896.88;;;1.48;100.00
15272;BME280;7737;51.578;7.268;2023-03-03T01:42:14;101911.59;;;1.30;100.00
15272;BME280;7737;51.578;7.268;2023-03-03T01:44:41;101916.03;;;1.40;100.00
15272;BME280;7737;51.578;7.268;2023-03-03T01:47:10;101909.06;;;1.40;100.00
15272;BME280;7737;51.578;7.268;2023-03-03T01:49:41;101915.09;;;1.32;100.00
15272;BME280;7737;51.578;7.268;2023-03-03T01:52:13;101918.53;;;1.28;100.00
15272;BME280;7737;51.578;7.268;2023-03-03T01:54:49;101915.13;;;1.35;100.00
15272;BME280;7737;51.578;7.268;2023-03-03T01:57:23;101904.63;;;1.33;100.00
15272;BME280;7737;51.578;7.268;2023-03-03T01:59:51;101900.34;;;1.47;100.00
15272;BME280;7737;51.578;7.268;2023-03-03T02:02:21;101893.34;;;1.40;100.00
15272;BME280;7737;51.578;7.268;2023-03-03T02:04:49;101886.41;;;1.54;100.00
15272;BME280;7737;51.578;7.268;2023-03-03T02:07:16;101889.03;;;1.51;100.00
15272;BME280;7737;51.578;7.268;2023-03-03T02:09:50;101891.63;;;1.45;100.00
15272;BME280;7737;51.578;7.268;2023-03-03T02:12:20;101891.66;;;1.48;100.00
15272;BME280;7737;51.578;7.268;2023-03-03T02:14:48;101887.31;;;1.58;100.00
15272;BME280;7737;51.578;7.268;2023-03-03T02:17:15;101885.53;;;1.52;100.00
15272;BME280;7737;51.578;7.268;2023-03-03T02:19:48;101884.63;;;1.44;100.00
15272;BME280;7737;51.578;7.268;2023-03-03T02:22:21;101895.94;;;1.37;100.00
15272;BME280;7737;51.578;7.268;2023-03-03T02:24:50;101900.25;;;1.35;100.00
15272;BME280;7737;51.578;7.268;2023-03-03T02:27:19;101902.94;;;1.40;100.00
15272;BME280;7737;51.578;7.268;2023-03-03T02:29:46;101894.28;;;1.48;100.00
15272;BME280;7737;51.578;7.268;2023-03-03T02:32:12;101893.25;;;1.31;100.00
15272;BME280;7737;51.578;7.268;2023-03-03T02:34:47;101902.03;;;1.36;100.00
15272;BME280;7737;51.578;7.268;2023-03-03T02:37:14;101902.84;;;1.29;100.00
15272;BME280;7737;51.578;7.268;2023-03-03T02:39:40;101898.44;;;1.25;100.00
15272;BME280;7737;51.578;7.268;2023-03-03T02:42:09;101905.47;;;1.29;100.00
15272;BME280;7737;51.578;7.268;2023-03-03T02:44:39;101902.81;;;1.24;100.00
15272;BME280;7737;51.578;7.268;2023-03-03T02:47:06;101905.44;;;1.26;100.00
15272;BME280;7737;51.578;7.268;2023-03-03T02:49:34;101886.28;;;1.32;100.00
15272;BME280;7737;51.578;7.268;2023-03-03T02:52:04;101901.03;;;1.19;100.00
15272;BME280;7737;51.578;7.268;2023-03-03T02:54:31;101896.63;;;1.15;100.00
15272;BME280;7737;51.578;7.268;2023-03-03T02:56:58;101889.63;;;1.14;100.00
15272;BME280;7737;51.578;7.268;2023-03-03T02:59:24;101901.00;;;1.13;100.00
15272;BME280;7737;51.578;7.268;2023-03-03T03:01:53;101899.25;;;1.15;100.00
15272;BME280;7737;51.578;7.268;2023-03-03T03:04:21;101905.34;;;1.11;100.00
15272;BME280;7737;51.578;7.268;2023-03-03T03:06:49;101907.88;;;1.00;100.00
15272;BME280;7737;51.578;7.268;2023-03-03T03:09:17;101900.06;;;1.05;100.00
15272;BME280;7737;51.578;7.268;2023-03-03T03:11:43;101898.44;;;1.19;100.00
15272;BME280;7737;51.578;7.268;2023-03-03T03:14:12;101910.56;;;1.08;100.00
15272;BME280;7737;51.578;7.268;2023-03-03T03:16:39;101911.53;;;1.23;100.00
15272;BME280;7737;51.578;7.268;2023-03-03T03:19:07;101910.72;;;1.29;100.00
15272;BME280;7737;51.578;7.268;2023-03-03T03:21:34;101905.34;;;1.14;100.00
15272;BME280;7737;51.578;7.268;2023-03-03T03:24:01;101908.72;;;0.99;100.00
15272;BME280;7737;51.578;7.268;2023-03-03T03:26:28;101911.59;;;1.33;100.00
15272;BME280;7737;51.578;7.268;2023-03-03T03:28:55;101916.66;;;1.11;100.00
15272;BME280;7737;51.578;7.268;2023-03-03T03:31:21;101915.69;;;0.97;100.00
15272;BME280;7737;51.578;7.268;2023-03-03T03:33:48;101927.91;;;0.97;100.00
15272;BME280;7737;51.578;7.268;2023-03-03T03:36:17;101921.00;;;1.06;100.00
15272;BME280;7737;51.578;7.268;2023-03-03T03:38:43;101931.44;;;1.00;100.00
15272;BME280;7737;51.578;7.268;2023-03-03T03:41:11;101940.13;;;1.01;100.00
15272;BME280;7737;51.578;7.268;2023-03-03T03:43:37;101940.13;;;0.99;100.00
15272;BME280;7737;51.578;7.268;2023-03-03T03:46:04;101934.00;;;0.94;100.00
15272;BME280;7737;51.578;7.268;2023-03-03T03:48:31;101930.44;;;0.91;100.00
15272;BME280;7737;51.578;7.268;2023-03-03T03:50:57;101940.13;;;0.98;100.00
15272;BME280;7737;51.578;7.268;2023-03-03T03:53:25;101943.53;;;0.89;100.00
15272;BME280;7737;51.578;7.268;2023-03-03T03:55:52;101935.75;;;0.98;100.00
15272;BME280;7737;51.578;7.268;2023-03-03T03:58:19;101941.81;;;0.90;100.00
15272;BME280;7737;51.578;7.268;2023-03-03T04:00:45;101934.91;;;0.99;100.00
15272;BME280;7737;51.578;7.268;2023-03-03T04:03:12;101940.91;;;0.91;100.00
15272;BME280;7737;51.578;7.268;2023-03-03T04:05:39;101939.28;;;1.03;100.00
15272;BME280;7737;51.578;7.268;2023-03-03T04:08:06;101944.47;;;0.96;100.00
15272;BME280;7737;51.578;7.268;2023-03-03T04:10:34;101935.78;;;1.01;100.00
15272;BME280;7737;51.578;7.268;2023-03-03T04:13:00;101932.38;;;1.08;100.00
15272;BME280;7737;51.578;7.268;2023-03-03T04:15:27;101931.38;;;0.96;100.00
15272;BME280;7737;51.578;7.268;2023-03-03T04:17:53;101938.44;;;1.03;100.00
15272;BME280;7737;51.578;7.268;2023-03-03T04:20:20;101938.28;;;0.88;100.00
15272;BME280;7737;51.578;7.268;2023-03-03T04:22:46;101934.09;;;1.06;100.00
15272;BME280;7737;51.578;7.268;2023-03-03T04:25:14;101936.66;;;1.03;100.00
15272;BME280;7737;51.578;7.268;2023-03-03T04:27:43;101935.03;;;1.13;100.00
15272;BME280;7737;51.578;7.268;2023-03-03T04:30:11;101941.13;;;1.12;100.00
15272;BME280;7737;51.578;7.268;2023-03-03T04:32:38;101939.38;;;1.11;100.00
15272;BME280;7737;51.578;7.268;2023-03-03T04:35:05;101940.31;;;1.19;100.00
15272;BME280;7737;51.578;7.268;2023-03-03T04:37:32;101938.56;;;1.16;100.00
15272;BME280;7737;51.578;7.268;2023-03-03T04:39:58;101934.97;;;1.05;100.00
15272;BME280;7737;51.578;7.268;2023-03-03T04:42:25;101933.22;;;1.09;100.00
15272;BME280;7737;51.578;7.268;2023-03-03T04:44:54;101936.75;;;1.11;100.00
15272;BME280;7737;51.578;7.268;2023-03-03T04:47:21;101933.28;;;1.15;100.00
15272;BME280;7737;51.578;7.268;2023-03-03T04:49:47;101935.03;;;1.13;100.00
15272;BME280;7737;51.578;7.268;2023-03-03T04:52:14;101928.91;;;1.11;100.00
15272;BME280;7737;51.578;7.268;2023-03-03T04:54:40;101938.63;;;1.26;100.00
15272;BME280;7737;51.578;7.268;2023-03-03T04:57:07;101931.56;;;1.17;100.00
15272;BME280;7737;51.578;7.268;2023-03-03T04:59:34;101936.03;;;1.27;100.00
15272;BME280;7737;51.578;7.268;2023-03-03T05:02:02;101934.19;;;1.20;100.00
15272;BME280;7737;51.578;7.268;2023-03-03T05:04:29;101933.38;;;1.24;100.00
15272;BME280;7737;51.578;7.268;2023-03-03T05:06:56;101939.28;;;1.02;100.00
15272;BME280;7737;51.578;7.268;2023-03-03T05:09:23;101937.63;;;1.08;100.00
15272;BME280;7737;51.578;7.268;2023-03-03T05:11:49;101937.53;;;1.01;100.00
15272;BME280;7737;51.578;7.268;2023-03-03T05:14:16;101941.88;;;0.99;100.00
15272;BME280;7737;51.578;7.268;2023-03-03T05:16:42;101937.59;;;1.07;100.00
15272;BME280;7737;51.578;7.268;2023-03-03T05:19:10;101936.75;;;1.14;100.00
15272;BME280;7737;51.578;7.268;2023-03-03T05:21:37;101927.22;;;1.20;100.00
15272;BME280;7737;51.578;7.268;2023-03-03T05:24:06;101938.47;;;1.09;100.00
15272;BME280;7737;51.578;7.268;2023-03-03T05:26:33;101941.16;;;1.13;100.00
15272;BME280;7737;51.578;7.268;2023-03-03T05:29:00;101948.94;;;1.09;100.00
15272;BME280;7737;51.578;7.268;2023-03-03T05:31:26;101952.50;;;1.17;100.00
15272;BME280;7737;51.578;7.268;2023-03-03T05:33:53;101942.00;;;1.14;100.00
15272;BME280;7737;51.578;7.268;2023-03-03T05:36:21;101942.03;;;1.15;100.00
15272;BME280;7737;51.578;7.268;2023-03-03T05:38:48;101943.72;;;1.12;100.00
15272;BME280;7737;51.578;7.268;2023-03-03T05:41:14;101939.47;;;1.21;100.00
15272;BME280;7737;51.578;7.268;2023-03-03T05:43:41;101945.41;;;1.04;100.00
15272;BME280;7737;51.578;7.268;2023-03-03T05:46:07;101938.53;;;1.15;100.00
15272;BME280;7737;51.578;7.268;2023-03-03T05:48:34;101932.41;;;1.14;100.00
15272;BME280;7737;51.578;7.268;2023-03-03T05:51:01;101941.16;;;1.15;100.00
15272;BME280;7737;51.578;7.268;2023-03-03T05:53:29;101935.88;;;1.12;100.00
15272;BME280;7737;51.578;7.268;2023-03-03T05:55:55;101932.44;;;1.16;100.00
15272;BME280;7737;51.578;7.268;2023-03-03T05:58:22;101943.75;;;1.15;100.00
15272;BME280;7737;51.578;7.268;2023-03-03T06:00:48;101946.38;;;1.15;100.00
15272;BME280;7737;51.578;7.268;2023-03-03T06:03:15;101956.88;;;1.18;100.00
15272;BME280;7737;51.578;7.268;2023-03-03T06:05:42;101960.34;;;1.12;100.00
15272;BME280;7737;51.578;7.268;2023-03-03T06:08:08;101955.09;;;1.14;100.00
15272;BME280;7737;51.578;7.268;2023-03-03T06:10:36;101955.84;;;1.01;100.00
15272;BME280;7737;51.578;7.268;2023-03-03T06:13:03;101951.66;;;1.16;100.00
15272;BME280;7737;51.578;7.268;2023-03-03T06:15:29;101954.28;;;1.18;100.00
15272;BME280;7737;51.578;7.268;2023-03-03T06:17:56;101959.41;;;1.09;100.00
15272;BME280;7737;51.578;7.268;2023-03-03T06:20:22;101962.94;;;1.11;100.00
15272;BME280;7737;51.578;7.268;2023-03-03T06:22:49;101962.09;;;1.13;100.00
15272;BME280;7737;51.578;7.268;2023-03-03T06:25:15;101971.66;;;1.10;100.00
15272;BME280;7737;51.578;7.268;2023-03-03T06:27:43;101982.25;;;1.25;100.00
15272;BME280;7737;51.578;7.268;2023-03-03T06:30:10;101978.75;;;1.23;100.00
15272;BME280;7737;51.578;7.268;2023-03-03T06:32:38;101970.97;;;1.35;100.00
15272;BME280;7737;51.578;7.268;2023-03-03T06:35:05;101977.97;;;1.33;100.00
15272;BME280;7737;51.578;7.268;2023-03-03T06:37:31;101981.38;;;1.23;100.00
15272;BME280;7737;51.578;7.268;2023-03-03T06:39:58;101981.38;;;1.21;100.00
15272;BME280;7737;51.578;7.268;2023-03-03T06:42:24;101983.19;;;1.32;100.00
15272;BME280;7737;51.578;7.268;2023-03-03T06:44:52;101991.97;;;1.37;100.00
15272;BME280;7737;51.578;7.268;2023-03-03T06:47:19;101992.78;;;1.31;100.00
15272;BME280;7737;51.578;7.268;2023-03-03T06:49:46;101987.47;;;1.22;100.00
15272;BME280;7737;51.578;7.268;2023-03-03T06:52:16;101994.56;;;1.35;100.00
15272;BME280;7737;51.578;7.268;2023-03-03T06:54:43;101984.94;;;1.30;100.00
15272;BME280;7737;51.578;7.268;2023-03-03T06:57:16;101985.69;;;1.18;100.00
15272;BME280;7737;51.578;7.268;2023-03-03T06:59:43;101998.03;;;1.31;100.00
15272;BME280;7737;51.578;7.268;2023-03-03T07:02:16;101992.84;;;1.37;100.00
15272;BME280;7737;51.578;7.268;2023-03-03T07:04:43;101989.31;;;1.32;100.00
15272;BME280;7737;51.578;7.268;2023-03-03T07:07:16;101997.09;;;1.23;100.00
15272;BME280;7737;51.578;7.268;2023-03-03T07:09:44;102011.00;;;1.16;100.00
15272;BME280;7737;51.578;7.268;2023-03-03T07:12:14;102007.47;;;1.12;100.00
15272;BME280;7737;51.578;7.268;2023-03-03T07:14:42;102006.72;;;1.24;100.00
15272;BME280;7737;51.578;7.268;2023-03-03T07:17:15;102004.78;;;1.06;100.00
15272;BME280;7737;51.578;7.268;2023-03-03T07:19:43;102004.91;;;1.18;100.00
15272;BME280;7737;51.578;7.268;2023-03-03T07:22:14;102008.47;;;1.28;100.00
15272;BME280;7737;51.578;7.268;2023-03-03T07:24:42;102010.94;;;1.08;100.00
15272;BME280;7737;51.578;7.268;2023-03-03T07:27:12;102022.22;;;1.03;100.00
15272;BME280;7737;51.578;7.268;2023-03-03T07:29:39;102026.72;;;1.17;100.00
15272;BME280;7737;51.578;7.268;2023-03-03T07:32:23;102021.59;;;1.33;100.00
15272;BME280;7737;51.578;7.268;2023-03-03T07:34:51;102024.25;;;1.34;100.00
15272;BME280;7737;51.578;7.268;2023-03-03T07:37:28;102025.97;;;1.29;100.00
15272;BME280;7737;51.578;7.268;2023-03-03T07:39:56;102029.31;;;1.16;100.00
15272;BME280;7737;51.578;7.268;2023-03-03T07:42:24;102039.03;;;1.26;100.00
15272;BME280;7737;51.578;7.268;2023-03-03T07:44:54;102027.78;;;1.39;100.00
15272;BME280;7737;51.578;7.268;2023-03-03T07:47:24;102042.56;;;1.30;100.00
15272;BME280;7737;51.578;7.268;2023-03-03T07:49:53;102042.56;;;1.30;100.00
15272;BME280;7737;51.578;7.268;2023-03-03T07:52:24;102033.91;;;1.40;100.00
15272;BME280;7737;51.578;7.268;2023-03-03T07:54:53;102046.84;;;1.24;100.00
15272;BME280;7737;51.578;7.268;2023-03-03T07:57:22;102048.78;;;1.42;100.00
15272;BME280;7737;51.578;7.268;2023-03-03T07:59:52;102044.28;;;1.31;100.00
15272;BME280;7737;51.578;7.268;2023-03-03T08:02:39;102049.63;;;1.40;100.00
15272;BME280;7737;51.578;7.268;2023-03-03T08:05:35;102053.25;;;1.57;100.00
15272;BME280;7737;51.578;7.268;2023-03-03T08:08:27;102065.41;;;1.47;100.00
15272;BME280;7737;51.578;7.268;2023-03-03T08:10:57;102057.44;;;1.32;100.00
15272;BME280;7737;51.578;7.268;2023-03-03T08:13:27;102066.25;;;1.45;100.00
15272;BME280;7737;51.578;7.268;2023-03-03T08:15:59;102059.41;;;1.59;100.00
15272;BME280;7737;51.578;7.268;2023-03-03T08:18:31;102060.31;;;1.62;100.00
15272;BME280;7737;51.578;7.268;2023-03-03T08:21:00;102060.22;;;1.52;100.00
15272;BME280;7737;51.578;7.268;2023-03-03T08:23:28;102069.81;;;1.51;100.00
15272;BME280;7737;51.578;7.268;2023-03-03T08:25:54;102070.84;;;1.70;100.00
15272;BME280;7737;51.578;7.268;2023-03-03T08:28:21;102073.44;;;1.64;100.00
15272;BME280;7737;51.578;7.268;2023-03-03T08:30:49;102065.50;;;1.59;100.00
15272;BME280;7737;51.578;7.268;2023-03-03T08:33:17;102067.19;;;1.50;100.00
15272;BME280;7737;51.578;7.268;2023-03-03T08:35:45;102070.72;;;1.55;100.00
15272;BME280;7737;51.578;7.268;2023-03-03T08:38:14;102073.38;;;1.59;100.00
15272;BME280;7737;51.578;7.268;2023-03-03T08:40:41;102077.78;;;1.65;100.00
15272;BME280;7737;51.578;7.268;2023-03-03T08:43:08;102073.44;;;1.65;100.00
15272;BME280;7737;51.578;7.268;2023-03-03T08:45:35;102078.44;;;1.41;100.00
15272;BME280;7737;51.578;7.268;2023-03-03T08:48:02;102076.91;;;1.61;100.00
15272;BME280;7737;51.578;7.268;2023-03-03T08:50:29;102077.00;;;1.73;100.00
15272;BME280;7737;51.578;7.268;2023-03-03T08:52:57;102086.56;;;1.68;100.00
15272;BME280;7737;51.578;7.268;2023-03-03T08:55:23;102081.28;;;1.67;100.00
15272;BME280;7737;51.578;7.268;2023-03-03T08:57:50;102087.44;;;1.70;100.00
15272;BME280;7737;51.578;7.268;2023-03-03T09:00:18;102078.78;;;1.74;100.00
15272;BME280;7737;51.578;7.268;2023-03-03T09:02:44;102082.34;;;1.89;100.00
15272;BME280;7737;51.578;7.268;2023-03-03T09:05:12;102086.56;;;1.70;100.00
15272;BME280;7737;51.578;7.268;2023-03-03T09:07:39;102083.09;;;1.71;100.00
15272;BME280;7737;51.578;7.268;2023-03-03T09:10:08;102096.28;;;1.81;100.00
15272;BME280;7737;51.578;7.268;2023-03-03T09:12:38;102090.16;;;1.79;100.00
15272;BME280;7737;51.578;7.268;2023-03-03T09:15:18;102093.63;;;1.78;100.00
15272;BME280;7737;51.578;7.268;2023-03-03T09:17:45;102092.81;;;1.82;100.00
15272;BME280;7737;51.578;7.268;2023-03-03T09:20:24;102099.75;;;1.80;100.00
15272;BME280;7737;51.578;7.268;2023-03-03T09:22:52;102098.97;;;1.89;100.00
15272;BME280;7737;51.578;7.268;2023-03-03T09:25:26;102096.31;;;1.86;100.00
15272;BME280;7737;51.578;7.268;2023-03-03T09:27:56;102098.06;;;1.85;100.00
15272;BME280;7737;51.578;7.268;2023-03-03T09:30:35;102096.09;;;1.60;100.00
15272;BME280;7737;51.578;7.268;2023-03-03T09:33:18;102100.63;;;1.78;100.00
15272;BME280;7737;51.578;7.268;2023-03-03T09:35:49;102099.03;;;1.95;100.00
15272;BME280;7737;51.578;7.268;2023-03-03T09:38:24;102097.25;;;1.94;100.00
15272;BME280;7737;51.578;7.268;2023-03-03T09:41:07;102104.28;;;1.97;100.00
15272;BME280;7737;51.578;7.268;2023-03-03T09:43:46;102093.06;;;2.19;100.00
15272;BME280;7737;51.578;7.268;2023-03-03T09:46:21;102102.56;;;2.02;100.00
15272;BME280;7737;51.578;7.268;2023-03-03T09:48:57;102103.31;;;1.89;100.00
15272;BME280;7737;51.578;7.268;2023-03-03T09:51:42;102105.28;;;2.14;100.00
15272;BME280;7737;51.578;7.268;2023-03-03T09:54:19;102112.25;;;2.09;100.00
15272;BME280;7737;51.578;7.268;2023-03-03T09:56:53;102113.13;;;2.11;100.00
15272;BME280;7737;51.578;7.268;2023-03-03T09:59:34;102117.44;;;2.01;100.00
15272;BME280;7737;51.578;7.268;2023-03-03T10:02:21;102125.25;;;1.95;100.00
15272;BME280;7737;51.578;7.268;2023-03-03T10:05:08;102120.22;;;2.24;100.00
15272;BME280;7737;51.578;7.268;2023-03-03T10:07:42;102116.69;;;2.19;100.00
15272;BME280;7737;51.578;7.268;2023-03-03T10:10:20;102122.75;;;2.15;100.00
15272;BME280;7737;51.578;7.268;2023-03-03T10:13:00;102118.31;;;2.05;100.00
15272;BME280;7737;51.578;7.268;2023-03-03T10:15:38;102119.25;;;2.11;100.00
15272;BME280;7737;51.578;7.268;2023-03-03T10:18:15;102130.41;;;1.84;100.00
15272;BME280;7737;51.578;7.268;2023-03-03T10:20:52;102121.03;;;2.14;100.00
15272;BME280;7737;51.578;7.268;2023-03-03T10:23:24;102119.44;;;2.41;100.00
15272;BME280;7737;51.578;7.268;2023-03-03T10:26:06;102122.06;;;2.41;100.00
15272;BME280;7737;51.578;7.268;2023-03-03T10:28:57;102131.59;;;2.26;100.00
15272;BME280;7737;51.578;7.268;2023-03-03T10:31:36;102131.75;;;2.50;100.00
15272;BME280;7737;51.578;7.268;2023-03-03T10:34:15;102135.13;;;2.31;100.00
15272;BME280;7737;51.578;7.268;2023-03-03T10:36:52;102137.00;;;2.50;100.00
15272;BME280;7737;51.578;7.268;2023-03-03T10:39:31;102133.47;;;2.43;100.00
15272;BME280;7737;51.578;7.268;2023-03-03T10:42:19;102130.97;;;2.66;100.00
15272;BME280;7737;51.578;7.268;2023-03-03T10:45:18;102131.69;;;2.41;100.00
15272;BME280;7737;51.578;7.268;2023-03-03T10:48:07;102124.78;;;2.60;100.00
15272;BME280;7737;51.578;7.268;2023-03-03T10:50:47;102135.19;;;2.41;100.00
15272;BME280;7737;51.578;7.268;2023-03-03T10:53:21;102138.78;;;2.51;100.00
15272;BME280;7737;51.578;7.268;2023-03-03T10:55:56;102126.59;;;2.64;100.00
15272;BME280;7737;51.578;7.268;2023-03-03T10:58:44;102135.31;;;2.61;100.00
15272;BME280;7737;51.578;7.268;2023-03-03T11:01:20;102133.53;;;2.57;100.00
15272;BME280;7737;51.578;7.268;2023-03-03T11:07:03;102120.50;;;2.72;100.00
15272;BME280;7737;51.578;7.268;2023-03-03T11:10:00;102122.38;;;2.96;100.00
15272;BME280;7737;51.578;7.268;2023-03-03T11:12:40;102116.28;;;3.11;100.00
15272;BME280;7737;51.578;7.268;2023-03-03T11:15:20;102110.16;;;3.10;100.00
15272;BME280;7737;51.578;7.268;2023-03-03T11:18:01;102115.22;;;2.66;100.00
15272;BME280;7737;51.578;7.268;2023-03-03T11:20:34;102118.88;;;2.98;100.00
15272;BME280;7737;51.578;7.268;2023-03-03T11:23:15;102119.53;;;2.55;100.00
15272;BME280;7737;51.578;7.268;2023-03-03T11:25:50;102121.34;;;2.65;100.00
15272;BME280;7737;51.578;7.268;2023-03-03T11:28:30;102117.06;;;2.82;100.00
15272;BME280;7737;51.578;7.268;2023-03-03T11:31:10;102110.94;;;2.86;100.00
15272;BME280;7737;51.578;7.268;2023-03-03T11:33:46;102106.59;;;2.94;100.00
15272;BME280;7737;51.578;7.268;2023-03-03T11:36:19;102099.66;;;3.08;100.00
15272;BME280;7737;51.578;7.268;2023-03-03T11:38:53;102097.06;;;3.27;100.00
15272;BME280;7737;51.578;7.268;2023-03-03T11:41:29;102104.97;;;3.45;100.00
15272;BME280;7737;51.578;7.268;2023-03-03T11:44:01;102102.34;;;3.33;100.00
15272;BME280;7737;51.578;7.268;2023-03-03T11:46:32;102107.47;;;2.99;100.00
15272;BME280;7737;51.578;7.268;2023-03-03T11:49:03;102099.72;;;3.30;100.00
15272;BME280;7737;51.578;7.268;2023-03-03T11:51:40;102102.31;;;3.18;100.00
15272;BME280;7737;51.578;7.268;2023-03-03T11:54:14;102095.34;;;3.41;100.00
15272;BME280;7737;51.578;7.268;2023-03-03T11:56:45;102096.13;;;3.13;100.00
15272;BME280;7737;51.578;7.268;2023-03-03T11:59:49;102082.19;;;3.47;100.00
15272;BME280;7737;51.578;7.268;2023-03-03T12:02:38;102073.47;;;3.58;100.00
15272;BME280;7737;51.578;7.268;2023-03-03T12:05:16;102075.19;;;3.32;100.00
15272;BME280;7737;51.578;7.268;2023-03-03T12:07:55;102068.22;;;4.02;100.00
15272;BME280;7737;51.578;7.268;2023-03-03T12:10:29;102066.47;;;3.65;100.00
15272;BME280;7737;51.578;7.268;2023-03-03T12:13:04;102077.84;;;3.46;100.00
15272;BME280;7737;51.578;7.268;2023-03-03T12:15:37;102069.97;;;3.91;100.00
15272;BME280;7737;51.578;7.268;2023-03-03T12:18:25;102069.06;;;4.18;100.00
15272;BME280;7737;51.578;7.268;2023-03-03T12:21:09;102062.06;;;3.78;100.00
15272;BME280;7737;51.578;7.268;2023-03-03T12:23:49;102056.81;;;3.94;100.00
15272;BME280;7737;51.578;7.268;2023-03-03T12:26:26;102053.28;;;4.09;100.00
15272;BME280;7737;51.578;7.268;2023-03-03T12:29:03;102056.75;;;4.21;100.00
15272;BME280;7737;51.578;7.268;2023-03-03T12:31:38;102042.78;;;3.71;100.00
15272;BME280;7737;51.578;7.268;2023-03-03T12:34:14;102041.84;;;4.16;100.00
15272;BME280;7737;51.578;7.268;2023-03-03T12:36:58;102041.00;;;4.06;100.00
15272;BME280;7737;51.578;7.268;2023-03-03T12:39:40;102052.41;;;3.48;100.00
15272;BME280;7737;51.578;7.268;2023-03-03T12:42:18;102036.59;;;4.08;100.00
15272;BME280;7737;51.578;7.268;2023-03-03T12:44:51;102036.56;;;4.25;100.00
15272;BME280;7737;51.578;7.268;2023-03-03T12:47:26;102034.88;;;4.01;100.00
15272;BME280;7737;51.578;7.268;2023-03-03T12:50:05;102035.75;;;4.09;100.00
15272;BME280;7737;51.578;7.268;2023-03-03T12:52:46;102033.06;;;4.18;100.00
15272;BME280;7737;51.578;7.268;2023-03-03T12:55:20;102025.91;;;4.67;100.00
15272;BME280;7737;51.578;7.268;2023-03-03T12:57:57;102026.59;;;4.98;100.00
15272;BME280;7737;51.578;7.268;2023-03-03T13:00:36;102023.13;;;4.90;100.00
15272;BME280;7737;51.578;7.268;2023-03-03T13:03:12;102033.06;;;4.27;100.00
15272;BME280;7737;51.578;7.268;2023-03-03T13:05:52;102017.81;;;4.99;100.00
15272;BME280;7737;51.578;7.268;2023-03-03T13:08:35;102009.19;;;4.76;100.00
15272;BME280;7737;51.578;7.268;2023-03-03T13:11:23;102012.84;;;4.36;100.00
15272;BME280;7737;51.578;7.268;2023-03-03T13:13:58;102015.25;;;4.88;100.00
15272;BME280;7737;51.578;7.268;2023-03-03T13:16:33;102019.69;;;4.74;100.00
15272;BME280;7737;51.578;7.268;2023-03-03T13:19:04;102010.91;;;4.80;100.00
15272;BME280;7737;51.578;7.268;2023-03-03T13:21:36;102014.50;;;4.61;100.00
15272;BME280;7737;51.578;7.268;2023-03-03T13:24:16;102014.47;;;4.67;100.00